Terminal Aerodrome Forecast
Issued by NWS

Home | Current Version | Previous Version | Text Only | Print | Product List | Glossary On
Versions: 1 2 3 4 5 6 7 8 9 10 11 12 13
149
FTUS45 KRIW 042328
TAFBPI
TAF
KBPI 042328Z 0500/0524 33008KT P6SM VCSH SCT024 BKN040
     FM050700 34006KT P6SM VCFG FEW003 SCT050
     FM051700 34010KT P6SM FEW050=

USA.gov is the U.S. government's official web portal to all federal, state and local government web resources and services.